Time;durP1;ratioP1;P1;durP2;ratioP2;P2;SDS_P1;SDS_P2;PMS_P1;PMS_P2;Temp;Humidity;BMP_temperature;BMP_pressure;BME280_temperature;BME280_humidity;BME280_pressure;Samples;Min_cycle;Max_cycle;Signal;HPM_P1;HPM_P2
2022/10/08 00:02:10;;;;;;;;;;;;;;;15.65;78.44;100545.31;5031320;28;2107;-61
2022/10/08 00:04:35;;;;;;;;;;;;;;;15.66;78.15;100537.84;5022644;28;1840;-62
2022/10/08 00:07:01;;;;;;;;;;;;;;;15.68;77.97;100535.59;5031289;28;1717;-62
2022/10/08 00:09:27;;;;;;;;;;;;;;;15.66;78.41;100530.41;5030898;28;1813;-61
2022/10/08 00:11:52;;;;;;;;;;;;;;;15.67;78.11;100539.50;5030766;28;2339;-61
2022/10/08 00:14:17;;;;;;;;;;;;;;;15.66;78.47;100544.19;5032266;28;1911;-61
2022/10/08 00:16:42;;;;;;;;;;;;;;;15.66;78.62;100543.38;5025527;28;1749;-61
2022/10/08 00:19:11;;;;;;;;;;;;;;;15.65;78.47;100547.28;5020022;28;2116;-61
2022/10/08 00:21:37;;;;;;;;;;;;;;;15.63;78.53;100547.59;5028819;28;1721;-62
2022/10/08 00:24:04;;;;;;;;;;;;;;;15.62;78.39;100545.97;5026612;28;1672;-61
2022/10/08 00:26:30;;;;;;;;;;;;;;;15.62;78.44;100551.47;5030039;28;1962;-61
2022/10/08 00:28:58;;;;;;;;;;;;;;;15.62;78.76;100553.41;5030642;28;1903;-61
2022/10/08 00:31:24;;;;;;;;;;;;;;;15.61;78.75;100549.03;5031620;28;1758;-61
2022/10/08 00:33:51;;;;;;;;;;;;;;;15.62;78.37;100553.41;5030709;28;1743;-62
2022/10/08 00:36:17;;;;;;;;;;;;;;;15.61;78.57;100546.25;5031193;28;1926;-61
2022/10/08 00:38:42;;;;;;;;;;;;;;;15.62;78.50;100548.72;5029221;28;1857;-62
2022/10/08 00:41:15;;;;;;;;;;;;;;;15.64;78.62;100542.91;5029311;28;2303;-62
2022/10/08 00:43:43;;;;;;;;;;;;;;;15.65;78.57;100542.56;5023825;28;2058;-62
2022/10/08 00:46:27;;;;;;;;;;;;;;;15.66;79.06;100546.13;5026856;28;1974;-62
2022/10/08 00:48:59;;;;;;;;;;;;;;;15.68;78.65;100530.91;5028924;28;1858;-61
2022/10/08 00:51:25;;;;;;;;;;;;;;;15.70;78.70;100538.88;5031157;28;1902;-61
2022/10/08 00:53:51;;;;;;;;;;;;;;;15.68;78.79;100533.66;5026767;28;1992;-61
2022/10/08 00:56:16;;;;;;;;;;;;;;;15.67;78.81;100526.50;5030089;28;1893;-61
2022/10/08 00:58:42;;;;;;;;;;;;;;;15.67;78.59;100531.22;5025152;28;1681;-62
2022/10/08 01:01:07;;;;;;;;;;;;;;;15.66;79.05;100526.81;5031151;28;1625;-61
2022/10/08 01:03:32;;;;;;;;;;;;;;;15.65;78.88;100522.44;5022333;28;1910;-61
2022/10/08 01:06:16;;;;;;;;;;;;;;;15.63;78.55;100516.44;5030441;28;1891;-61
2022/10/08 01:08:52;;;;;;;;;;;;;;;15.63;79.00;100514.47;5029460;28;1784;-61
2022/10/08 01:11:27;;;;;;;;;;;;;;;15.62;78.86;100514.78;5022256;28;1859;-62
2022/10/08 01:14:12;;;;;;;;;;;;;;;15.61;78.98;100511.22;5022645;28;2165;-61
2022/10/08 01:16:55;;;;;;;;;;;;;;;15.61;78.97;100513.97;5019580;28;1673;-61
2022/10/08 01:19:46;;;;;;;;;;;;;;;15.61;78.76;100510.41;5035359;28;1699;-61
2022/10/08 01:22:29;;;;;;;;;;;;;;;15.62;78.84;100514.78;5026629;28;1818;-61
2022/10/08 01:27:56;;;;;;;;;;;;;;;15.60;79.03;100512.34;5033954;28;1915;-62
2022/10/08 01:30:21;;;;;;;;;;;;;;;15.60;79.09;100509.59;5031968;28;1849;-61
2022/10/08 01:32:49;;;;;;;;;;;;;;;15.58;78.72;100509.06;5025383;28;1877;-61
2022/10/08 01:35:23;;;;;;;;;;;;;;;15.61;79.08;100513.16;5033474;28;1894;-61
2022/10/08 01:37:54;;;;;;;;;;;;;;;15.58;79.46;100514.59;5034043;28;1783;-61
2022/10/08 01:40:22;;;;;;;;;;;;;;;15.57;79.21;100517.69;5033180;28;1919;-62
2022/10/08 01:42:49;;;;;;;;;;;;;;;15.58;79.19;100513.78;5033987;28;1930;-61
2022/10/08 01:45:17;;;;;;;;;;;;;;;15.58;79.21;100516.53;5032578;28;1916;-61
2022/10/08 01:47:44;;;;;;;;;;;;;;;15.58;79.32;100511.00;5035106;28;1645;-62
2022/10/08 01:50:22;;;;;;;;;;;;;;;15.58;79.26;100508.25;5029869;28;2011;-62
2022/10/08 01:52:53;;;;;;;;;;;;;;;15.57;79.16;100503.91;5032643;28;1786;-61
2022/10/08 01:55:23;;;;;;;;;;;;;;;15.57;79.14;100509.41;5033984;28;1973;-61
2022/10/08 01:57:49;;;;;;;;;;;;;;;15.54;79.36;100513.59;5032354;28;1831;-61
2022/10/08 02:00:14;;;;;;;;;;;;;;;15.54;79.35;100510.03;5026452;28;1942;-61
2022/10/08 02:02:40;;;;;;;;;;;;;;;15.54;79.11;100510.84;5024067;28;1918;-61
2022/10/08 02:05:05;;;;;;;;;;;;;;;15.53;79.44;100506.41;5033395;28;2011;-61
2022/10/08 02:07:34;;;;;;;;;;;;;;;15.52;79.30;100505.59;5028531;28;1676;-62
2022/10/08 02:10:02;;;;;;;;;;;;;;;15.52;79.34;100508.34;5033959;28;1818;-62
2022/10/08 02:12:27;;;;;;;;;;;;;;;15.51;79.01;100509.47;5030969;28;1873;-61
2022/10/08 02:14:53;;;;;;;;;;;;;;;15.52;79.43;100511.13;5023202;28;1912;-61
2022/10/08 02:17:19;;;;;;;;;;;;;;;15.52;79.39;100504.78;5023494;28;1639;-61
2022/10/08 02:19:47;;;;;;;;;;;;;;;15.51;79.15;100503.97;5034127;28;1644;-61
2022/10/08 02:22:15;;;;;;;;;;;;;;;15.52;79.30;100511.13;5030480;28;1773;-61
2022/10/08 02:24:42;;;;;;;;;;;;;;;15.51;79.57;100514.19;5026596;28;1818;-61
2022/10/08 02:27:10;;;;;;;;;;;;;;;15.50;79.61;100505.09;5032671;28;1985;-61
2022/10/08 02:29:37;;;;;;;;;;;;;;;15.50;79.49;100505.09;5023002;28;2128;-61
2022/10/08 02:32:10;;;;;;;;;;;;;;;15.51;79.38;100500.41;5032148;28;1728;-61
2022/10/08 02:34:45;;;;;;;;;;;;;;;15.49;79.52;100511.72;5029840;28;1961;-61
2022/10/08 02:37:19;;;;;;;;;;;;;;;15.50;79.54;100504.28;5032591;28;1601;-61
2022/10/08 02:39:47;;;;;;;;;;;;;;;15.50;79.34;100505.09;5028605;28;1761;-61
2022/10/08 02:42:15;;;;;;;;;;;;;;;15.49;79.27;100499.88;5029184;28;1805;-62
2022/10/08 02:44:42;;;;;;;;;;;;;;;15.48;79.37;100507.34;5032569;28;2092;-62
2022/10/08 02:47:10;;;;;;;;;;;;;;;15.48;79.37;100499.06;5029022;28;1796;-61
2022/10/08 02:49:43;;;;;;;;;;;;;;;15.46;79.32;100501.34;5033439;28;2154;-61
2022/10/08 02:52:09;;;;;;;;;;;;;;;15.47;80.03;100518.72;5032326;28;1845;-61
2022/10/08 02:54:36;;;;;;;;;;;;;;;15.46;79.87;100504.09;5032417;28;1910;-61
2022/10/08 02:57:08;;;;;;;;;;;;;;;15.45;79.74;100507.16;5027166;28;1661;-61
2022/10/08 02:59:34;;;;;;;;;;;;;;;15.44;79.59;100500.03;5024325;28;1935;-61
2022/10/08 03:02:01;;;;;;;;;;;;;;;15.44;79.43;100519.31;5023522;28;1970;-61
2022/10/08 03:04:29;;;;;;;;;;;;;;;15.42;79.34;100497.56;5033104;28;2017;-61
2022/10/08 03:06:55;;;;;;;;;;;;;;;15.42;79.75;100496.75;5022441;28;1633;-61
2022/10/08 03:09:22;;;;;;;;;;;;;;;15.42;79.69;100494.00;5028872;28;2002;-61
2022/10/08 03:11:47;;;;;;;;;;;;;;;15.43;79.44;100498.38;5033979;28;1629;-61
2022/10/08 03:14:14;;;;;;;;;;;;;;;15.42;79.36;100500.31;5031535;28;1838;-61
2022/10/08 03:16:43;;;;;;;;;;;;;;;15.43;79.36;100498.38;5030958;28;1912;-61
2022/10/08 03:19:10;;;;;;;;;;;;;;;15.42;79.29;100491.22;5032899;28;1854;-61
2022/10/08 03:21:38;;;;;;;;;;;;;;;15.42;79.38;100491.22;5027526;28;1790;-62
2022/10/08 03:24:04;;;;;;;;;;;;;;;15.43;79.39;100492.88;5033128;28;1709;-62
2022/10/08 03:26:29;;;;;;;;;;;;;;;15.43;79.63;100490.94;5023565;28;1835;-61
2022/10/08 03:28:54;;;;;;;;;;;;;;;15.41;79.90;100490.41;5032091;28;1790;-61
2022/10/08 03:31:19;;;;;;;;;;;;;;;15.42;79.51;100494.81;5033126;28;1698;-61
2022/10/08 03:33:51;;;;;;;;;;;;;;;15.44;79.72;100492.56;5032476;28;1852;-61
2022/10/08 03:36:17;;;;;;;;;;;;;;;15.44;79.55;100492.56;5031134;28;1977;-61
2022/10/08 03:38:42;;;;;;;;;;;;;;;15.46;79.89;100492.25;5029285;28;1659;-61
2022/10/08 03:41:08;;;;;;;;;;;;;;;15.44;79.68;100489.81;5026942;28;1710;-62
2022/10/08 03:43:33;;;;;;;;;;;;;;;15.43;80.04;100490.94;5027854;28;2029;-61
2022/10/08 03:45:58;;;;;;;;;;;;;;;15.43;79.82;100490.94;5031142;28;1883;-61
2022/10/08 03:48:24;;;;;;;;;;;;;;;15.42;79.65;100494.00;5030006;28;1954;-62
2022/10/08 03:50:52;;;;;;;;;;;;;;;15.42;79.70;100491.22;5032328;28;1885;-61
2022/10/08 03:53:18;;;;;;;;;;;;;;;15.40;80.08;100491.53;5032728;28;1754;-61
2022/10/08 03:55:43;;;;;;;;;;;;;;;15.40;79.65;100488.78;5031834;28;1894;-61
2022/10/08 03:58:08;;;;;;;;;;;;;;;15.41;79.45;100495.13;5028938;28;1683;-61
2022/10/08 04:00:33;;;;;;;;;;;;;;;15.41;80.00;100492.34;5026616;28;1708;-62
2022/10/08 04:02:58;;;;;;;;;;;;;;;15.39;79.97;100487.19;5031033;28;1718;-61
2022/10/08 04:05:23;;;;;;;;;;;;;;;15.40;80.06;100479.69;5031589;28;1782;-62
2022/10/08 04:07:49;;;;;;;;;;;;;;;15.39;79.89;100486.38;5031442;28;1837;-62
2022/10/08 04:10:14;;;;;;;;;;;;;;;15.39;79.71;100489.13;5031433;28;1803;-61
2022/10/08 04:12:39;;;;;;;;;;;;;;;15.37;79.97;100486.66;5029835;28;1827;-61
2022/10/08 04:15:04;;;;;;;;;;;;;;;15.37;80.00;100481.16;5030502;28;1998;-62
2022/10/08 04:17:29;;;;;;;;;;;;;;;15.38;79.85;100490.25;5030869;28;2071;-61
2022/10/08 04:19:56;;;;;;;;;;;;;;;15.36;80.21;100485.03;5031723;28;1605;-61
2022/10/08 04:22:21;;;;;;;;;;;;;;;15.36;80.05;100486.97;5031159;28;1795;-62
2022/10/08 04:24:46;;;;;;;;;;;;;;;15.36;79.73;100489.72;5025646;28;1762;-62
2022/10/08 04:27:11;;;;;;;;;;;;;;;15.36;79.71;100490.56;5030310;28;1696;-61
2022/10/08 04:29:36;;;;;;;;;;;;;;;15.35;79.79;100486.16;5030693;28;1901;-61
2022/10/08 04:32:01;;;;;;;;;;;;;;;15.35;79.97;100488.09;5023258;28;1670;-62
2022/10/08 04:34:27;;;;;;;;;;;;;;;15.34;79.81;100479.00;5028998;28;1898;-61
2022/10/08 04:36:53;;;;;;;;;;;;;;;15.34;79.87;100478.19;5027917;28;1709;-61
2022/10/08 04:39:18;;;;;;;;;;;;;;;15.33;80.57;100482.91;5030630;28;2112;-61
2022/10/08 04:41:43;;;;;;;;;;;;;;;15.34;80.09;100486.47;5029735;28;1734;-62
2022/10/08 04:44:08;;;;;;;;;;;;;;;15.33;79.76;100484.84;5028310;28;1754;-61
2022/10/08 04:46:33;;;;;;;;;;;;;;;15.33;80.02;100482.91;5028324;28;1875;-61
2022/10/08 04:48:59;;;;;;;;;;;;;;;15.33;80.26;100495.88;5023856;28;1950;-61
2022/10/08 04:51:24;;;;;;;;;;;;;;;15.32;79.83;100500.56;5033663;28;1851;-61
2022/10/08 04:53:50;;;;;;;;;;;;;;;15.32;79.81;100497.00;5033425;28;1930;-61
2022/10/08 04:56:17;;;;;;;;;;;;;;;15.31;80.01;100501.69;5036053;28;1945;-61
2022/10/08 04:58:42;;;;;;;;;;;;;;;15.31;79.86;100504.44;5035230;28;1968;-61
2022/10/08 05:01:09;;;;;;;;;;;;;;;15.30;80.18;100499.25;5033368;28;1978;-61
2022/10/08 05:03:38;;;;;;;;;;;;;;;15.31;80.33;100504.44;5034096;28;2017;-61
2022/10/08 05:06:03;;;;;;;;;;;;;;;15.29;79.92;100501.22;5031679;28;1891;-61
2022/10/08 05:08:28;;;;;;;;;;;;;;;15.30;80.13;100502.84;5030135;28;1796;-62
2022/10/08 05:10:53;;;;;;;;;;;;;;;15.29;80.03;100506.72;5035835;28;1965;-61
2022/10/08 05:13:19;;;;;;;;;;;;;;;15.28;80.72;100507.84;5034247;28;1663;-61
2022/10/08 05:15:44;;;;;;;;;;;;;;;15.28;80.32;100512.53;5031095;28;1890;-62
2022/10/08 05:18:09;;;;;;;;;;;;;;;15.27;80.51;100514.47;5031301;28;1847;-62
2022/10/08 05:20:35;;;;;;;;;;;;;;;15.27;80.54;100521.94;5035409;28;1632;-61
2022/10/08 05:23:00;;;;;;;;;;;;;;;15.26;79.94;100512.03;5030023;28;1891;-61
2022/10/08 05:25:25;;;;;;;;;;;;;;;15.27;80.29;100517.25;5031867;28;1683;-61
2022/10/08 05:27:50;;;;;;;;;;;;;;;15.24;79.87;100520.63;5030373;28;1727;-61
2022/10/08 05:30:15;;;;;;;;;;;;;;;15.26;80.44;100521.13;5030915;28;1673;-61
2022/10/08 05:32:41;;;;;;;;;;;;;;;15.25;79.97;100524.19;5029918;28;1713;-61
2022/10/08 05:35:06;;;;;;;;;;;;;;;15.25;80.15;100522.25;5035397;28;1886;-61
2022/10/08 05:37:32;;;;;;;;;;;;;;;15.25;80.72;100522.25;5026918;28;1890;-62
2022/10/08 05:39:57;;;;;;;;;;;;;;;15.25;80.63;100525.00;5027010;28;1862;-61
2022/10/08 05:42:22;;;;;;;;;;;;;;;15.25;80.13;100527.75;5035315;28;1700;-62
2022/10/08 05:44:47;;;;;;;;;;;;;;;15.25;80.14;100527.75;5034703;28;1805;-61
2022/10/08 05:47:12;;;;;;;;;;;;;;;15.24;80.40;100534.41;5032694;28;2018;-61
2022/10/08 05:49:37;;;;;;;;;;;;;;;15.24;79.96;100528.88;5034138;28;1806;-61
2022/10/08 05:52:02;;;;;;;;;;;;;;;15.23;80.40;100538.28;5035314;28;1821;-62
2022/10/08 05:54:28;;;;;;;;;;;;;;;15.24;80.28;100536.34;5033822;28;2034;-61
2022/10/08 05:56:53;;;;;;;;;;;;;;;15.23;80.62;100543.78;5033798;28;1861;-61
2022/10/08 05:59:20;;;;;;;;;;;;;;;15.23;80.22;100548.50;5033704;28;2133;-61
2022/10/08 06:01:45;;;;;;;;;;;;;;;15.24;80.55;100542.66;5031415;28;1831;-61
2022/10/08 06:04:10;;;;;;;;;;;;;;;15.26;79.77;100556.16;5031820;28;1714;-61
2022/10/08 06:06:36;;;;;;;;;;;;;;;15.27;80.51;100552.28;5034374;28;1712;-61
2022/10/08 06:09:02;;;;;;;;;;;;;;;15.26;80.31;100562.50;5034655;28;2065;-62
2022/10/08 06:11:28;;;;;;;;;;;;;;;15.26;80.56;100562.50;5034229;28;1836;-61
2022/10/08 06:13:55;;;;;;;;;;;;;;;15.27;80.02;100579.84;5020054;28;1767;-61
2022/10/08 06:16:21;;;;;;;;;;;;;;;15.29;80.94;100580.38;5034111;28;1973;-62
2022/10/08 06:18:47;;;;;;;;;;;;;;;15.32;80.20;100586.06;5024896;28;2165;-61
2022/10/08 06:21:13;;;;;;;;;;;;;;;15.33;80.66;100587.69;5019855;28;1586;-61
2022/10/08 06:23:43;;;;;;;;;;;;;;;15.36;79.98;100600.88;5019045;28;1612;-61
2022/10/08 06:26:09;;;;;;;;;;;;;;;15.36;80.64;100600.88;5031896;28;1873;-61
2022/10/08 06:28:35;;;;;;;;;;;;;;;15.36;80.36;100622.94;5031564;28;1692;-62
2022/10/08 06:31:01;;;;;;;;;;;;;;;15.37;80.08;100601.69;5029424;28;1629;-62
2022/10/08 06:33:26;;;;;;;;;;;;;;;15.37;80.74;100601.69;5029513;28;1867;-62
2022/10/08 06:35:52;;;;;;;;;;;;;;;15.38;80.35;100608.84;5033226;28;1982;-62
2022/10/08 06:38:17;;;;;;;;;;;;;;;15.38;80.40;100609.66;5027315;28;1603;-62
2022/10/08 06:40:42;;;;;;;;;;;;;;;15.38;80.36;100608.84;5023158;28;1576;-61
2022/10/08 06:43:11;;;;;;;;;;;;;;;15.38;80.18;100606.91;5029410;28;1649;-61
2022/10/08 06:45:37;;;;;;;;;;;;;;;15.38;80.20;100612.41;5033424;28;1908;-62
2022/10/08 06:48:02;;;;;;;;;;;;;;;15.38;80.25;100611.59;5032650;28;1690;-61
2022/10/08 06:50:27;;;;;;;;;;;;;;;15.40;80.02;100620.34;5026076;28;1613;-61
2022/10/08 06:52:52;;;;;;;;;;;;;;;15.40;80.15;100623.13;5021823;28;1837;-62
2022/10/08 06:55:17;;;;;;;;;;;;;;;15.41;80.39;100631.09;5027490;28;1990;-62
2022/10/08 06:57:43;;;;;;;;;;;;;;;15.44;80.95;100633.25;5034313;28;1778;-62
2022/10/08 07:00:08;;;;;;;;;;;;;;;15.45;80.22;100623.84;5028492;28;1859;-62
2022/10/08 07:02:33;;;;;;;;;;;;;;;15.45;80.36;100614.75;5027275;28;1880;-61
2022/10/08 07:04:58;;;;;;;;;;;;;;;15.45;80.17;100620.28;5026293;28;1549;-61
2022/10/08 07:07:23;;;;;;;;;;;;;;;15.44;80.40;100627.72;5033595;28;1906;-61
2022/10/08 07:09:49;;;;;;;;;;;;;;;15.45;80.28;100626.59;5024948;28;1615;-61
2022/10/08 07:12:14;;;;;;;;;;;;;;;15.46;81.00;100638.44;5032461;28;1965;-62
2022/10/08 07:14:39;;;;;;;;;;;;;;;15.46;80.75;100635.69;5031810;28;1898;-62
2022/10/08 07:17:04;;;;;;;;;;;;;;;15.46;80.64;100644.78;5032131;28;2099;-62
2022/10/08 07:19:29;;;;;;;;;;;;;;;15.47;80.43;100651.13;5024608;28;1945;-62
2022/10/08 07:21:55;;;;;;;;;;;;;;;15.47;80.77;100645.59;5032693;28;1872;-61
2022/10/08 07:24:20;;;;;;;;;;;;;;;15.46;80.93;100647.56;5031841;28;1332;-62
2022/10/08 07:26:45;;;;;;;;;;;;;;;15.47;80.32;100651.94;5031304;28;1903;-61
2022/10/08 07:29:11;;;;;;;;;;;;;;;15.47;80.56;100660.22;5033042;28;1555;-61
2022/10/08 07:31:37;;;;;;;;;;;;;;;15.47;80.30;100657.47;5025069;28;1996;-62
2022/10/08 07:34:04;;;;;;;;;;;;;;;15.47;80.34;100662.97;5023919;28;1854;-61
2022/10/08 07:36:29;;;;;;;;;;;;;;;15.47;80.89;100668.50;5031426;28;1898;-61
2022/10/08 07:38:56;;;;;;;;;;;;;;;15.48;80.40;100659.06;5030762;28;2087;-62
2022/10/08 07:41:21;;;;;;;;;;;;;;;15.47;80.78;100668.50;5026695;28;2207;-61
2022/10/08 07:43:53;;;;;;;;;;;;;;;15.50;80.56;100672.56;5029856;28;2179;-62
2022/10/08 07:46:19;;;;;;;;;;;;;;;15.49;80.54;100671.75;5022028;28;1786;-61
2022/10/08 07:48:44;;;;;;;;;;;;;;;15.49;80.92;100681.94;5030340;28;2010;-61
2022/10/08 07:51:14;;;;;;;;;;;;;;;15.49;80.76;100691.06;5022941;28;1735;-62
2022/10/08 07:53:40;;;;;;;;;;;;;;;15.49;80.48;100677.25;5014397;28;1924;-61
2022/10/08 07:56:05;;;;;;;;;;;;;;;15.54;81.00;100684.66;5029180;28;1898;-62
2022/10/08 07:58:30;;;;;;;;;;;;;;;15.61;81.15;100689.75;5032104;28;1809;-62
2022/10/08 08:00:56;;;;;;;;;;;;;;;15.68;80.66;100682.69;5031979;28;1820;-62
2022/10/08 08:03:22;;;;;;;;;;;;;;;15.70;80.97;100682.38;5031127;28;1847;-61
2022/10/08 08:05:47;;;;;;;;;;;;;;;15.65;80.23;100697.09;5028313;28;1832;-61
2022/10/08 08:08:12;;;;;;;;;;;;;;;15.62;80.18;100702.41;5028417;28;1961;-61
2022/10/08 08:10:37;;;;;;;;;;;;;;;15.56;80.25;100698.16;5031870;28;1962;-61
2022/10/08 08:13:03;;;;;;;;;;;;;;;15.51;80.07;100699.03;5030722;28;2044;-62
2022/10/08 08:15:28;;;;;;;;;;;;;;;15.37;80.14;100701.00;5031742;28;1997;-62
2022/10/08 08:17:53;;;;;;;;;;;;;;;15.24;80.41;100699.03;5030158;28;1881;-62
2022/10/08 08:20:18;;;;;;;;;;;;;;;15.13;80.29;100709.47;5026673;28;1873;-62
2022/10/08 08:22:43;;;;;;;;;;;;;;;15.04;80.06;100709.38;5031782;28;1830;-62
2022/10/08 08:25:08;;;;;;;;;;;;;;;14.98;80.36;100718.00;5020017;28;1812;-62
2022/10/08 08:27:33;;;;;;;;;;;;;;;14.91;79.95;100723.13;5030501;28;1802;-62
2022/10/08 08:29:59;;;;;;;;;;;;;;;14.87;80.78;100714.66;5028338;28;2057;-62
2022/10/08 08:32:24;;;;;;;;;;;;;;;14.84;80.63;100717.19;5029663;28;1985;-61
2022/10/08 08:34:49;;;;;;;;;;;;;;;14.79;79.50;100723.63;5031454;28;1979;-62
2022/10/08 08:37:14;;;;;;;;;;;;;;;14.77;80.50;100723.91;5022985;28;1934;-62
2022/10/08 08:39:40;;;;;;;;;;;;;;;14.77;80.57;100720.34;5026254;28;1988;-61
2022/10/08 08:42:22;;;;;;;;;;;;;;;14.75;80.49;100726.16;5032106;28;1881;-62
2022/10/08 08:44:58;;;;;;;;;;;;;;;14.74;80.30;100746.56;5032575;28;1582;-62
2022/10/08 08:47:27;;;;;;;;;;;;;;;14.73;80.42;100731.13;5023409;28;1820;-62
2022/10/08 08:49:54;;;;;;;;;;;;;;;14.71;80.45;100747.19;5025077;28;1558;-62
2022/10/08 08:52:22;;;;;;;;;;;;;;;14.70;80.29;100740.03;5031211;28;1889;-62
2022/10/08 08:54:48;;;;;;;;;;;;;;;14.68;80.03;100747.78;5033060;28;1895;-62
2022/10/08 08:57:20;;;;;;;;;;;;;;;14.67;79.80;100748.88;5031880;28;2260;-62
2022/10/08 08:59:46;;;;;;;;;;;;;;;14.68;79.67;100749.72;5027784;28;1907;-62
2022/10/08 09:02:29;;;;;;;;;;;;;;;14.66;80.69;100738.97;5028716;28;2063;-61
2022/10/08 09:04:56;;;;;;;;;;;;;;;14.65;79.70;100751.13;5028055;28;1883;-62
2022/10/08 09:07:24;;;;;;;;;;;;;;;14.64;79.94;100749.47;5023862;28;1837;-62
2022/10/08 09:09:50;;;;;;;;;;;;;;;14.66;80.77;100762.97;5025397;28;1870;-62
2022/10/08 09:12:18;;;;;;;;;;;;;;;14.64;80.19;100766.00;5024866;28;1891;-62
2022/10/08 09:14:46;;;;;;;;;;;;;;;14.75;81.52;100770.25;5030170;28;2063;-63
2022/10/08 09:17:13;;;;;;;;;;;;;;;15.03;80.77;100771.13;5031159;28;1876;-62
2022/10/08 09:19:39;;;;;;;;;;;;;;;15.31;80.57;100783.00;5029437;28;2184;-62
2022/10/08 09:22:14;;;;;;;;;;;;;;;15.54;80.22;100785.91;5029907;28;1829;-63
2022/10/08 09:24:39;;;;;;;;;;;;;;;15.81;79.97;100778.44;5030685;28;1343;-63
2022/10/08 09:27:13;;;;;;;;;;;;;;;16.04;78.76;100792.31;5016840;28;2203;-61
2022/10/08 09:29:38;;;;;;;;;;;;;;;16.08;78.43;100796.06;5027319;28;2441;-61
2022/10/08 09:32:04;;;;;;;;;;;;;;;16.08;78.18;100799.66;5022428;28;2086;-63
2022/10/08 09:34:29;;;;;;;;;;;;;;;16.09;78.14;100806.00;5027805;28;2363;-62
2022/10/08 09:37:00;;;;;;;;;;;;;;;16.10;78.49;100797.41;5027433;28;2523;-63
2022/10/08 09:39:27;;;;;;;;;;;;;;;16.12;78.01;100811.72;5029419;28;2150;-62
2022/10/08 09:42:08;;;;;;;;;;;;;;;16.15;78.27;100810.28;5029659;28;2377;-63
2022/10/08 09:44:41;;;;;;;;;;;;;;;16.16;78.71;100809.97;5028492;28;2335;-63
2022/10/08 09:47:09;;;;;;;;;;;;;;;16.19;78.78;100803.81;5028852;28;2690;-63
2022/10/08 09:49:37;;;;;;;;;;;;;;;16.22;78.67;100805.97;5031358;28;2123;-63
2022/10/08 09:52:05;;;;;;;;;;;;;;;16.24;78.68;100803.72;5027919;28;1925;-63
2022/10/08 09:54:36;;;;;;;;;;;;;;;16.27;78.81;100808.63;5027949;28;2019;-63
2022/10/08 09:57:01;;;;;;;;;;;;;;;16.30;78.71;100809.94;5031832;28;2094;-63
2022/10/08 09:59:28;;;;;;;;;;;;;;;16.33;78.83;100809.34;5028515;28;1952;-63
2022/10/08 10:01:54;;;;;;;;;;;;;;;16.36;78.62;100819.75;5027904;28;2098;-62
2022/10/08 10:04:49;;;;;;;;;;;;;;;16.38;79.13;100824.97;5028228;28;2313;-62
2022/10/08 10:07:14;;;;;;;;;;;;;;;16.41;78.80;100825.16;5023230;28;1950;-62
2022/10/08 10:09:40;;;;;;;;;;;;;;;16.42;78.35;100821.25;5030164;28;2098;-61
2022/10/08 10:12:10;;;;;;;;;;;;;;;16.45;78.57;100825.34;5028144;28;2076;-63
2022/10/08 10:14:43;;;;;;;;;;;;;;;16.47;78.88;100823.09;5027277;28;2104;-63
2022/10/08 10:17:19;;;;;;;;;;;;;;;16.47;78.46;100823.09;5029068;28;2015;-63
2022/10/08 10:19:52;;;;;;;;;;;;;;;16.49;78.80;100821.66;5031544;28;2005;-62
2022/10/08 10:22:25;;;;;;;;;;;;;;;16.50;78.16;100826.03;5025268;28;2022;-63
2022/10/08 10:24:52;;;;;;;;;;;;;;;16.51;78.30;100821.31;5026493;28;2330;-62
2022/10/08 10:27:23;;;;;;;;;;;;;;;16.52;78.12;100828.50;5026499;28;2592;-62
2022/10/08 10:29:52;;;;;;;;;;;;;;;16.53;78.44;100824.59;5025660;28;2025;-62
2022/10/08 10:32:20;;;;;;;;;;;;;;;16.54;78.49;100821.53;5027109;28;2351;-62
2022/10/08 10:34:50;;;;;;;;;;;;;;;16.56;78.55;100826.75;5030174;28;2074;-62
2022/10/08 10:37:19;;;;;;;;;;;;;;;16.54;78.03;100821.53;5025519;28;1852;-62
2022/10/08 10:39:44;;;;;;;;;;;;;;;16.55;78.55;100820.41;5029142;28;2074;-62
2022/10/08 10:42:15;;;;;;;;;;;;;;;16.54;78.09;100812.41;5033635;28;1809;-62
2022/10/08 10:44:47;;;;;;;;;;;;;;;16.56;78.03;100818.47;5029351;28;1941;-61
2022/10/08 10:47:13;;;;;;;;;;;;;;;16.54;78.13;100821.53;5032036;28;2024;-61
2022/10/08 10:49:40;;;;;;;;;;;;;;;16.56;77.95;100819.28;5031091;28;2040;-63
2022/10/08 10:52:11;;;;;;;;;;;;;;;16.57;78.31;100820.91;5029748;28;1928;-62
2022/10/08 10:54:37;;;;;;;;;;;;;;;16.58;77.78;100818.97;5030431;28;1962;-61
2022/10/08 10:57:19;;;;;;;;;;;;;;;16.58;77.74;100813.44;5027300;28;1581;-62
2022/10/08 10:59:56;;;;;;;;;;;;;;;16.58;78.17;100822.56;5031902;28;2026;-62
2022/10/08 11:02:21;;;;;;;;;;;;;;;16.59;78.54;100828.88;5029801;28;1943;-63
2022/10/08 11:04:55;;;;;;;;;;;;;;;16.58;78.03;100824.50;5029863;28;1940;-63
2022/10/08 11:07:41;;;;;;;;;;;;;;;16.57;77.79;100822.88;5031576;28;1966;-62
2022/10/08 11:10:19;;;;;;;;;;;;;;;16.53;77.92;100828.19;5027546;28;2135;-62
2022/10/08 11:12:53;;;;;;;;;;;;;;;16.54;78.08;100827.06;5026307;28;1999;-61
2022/10/08 11:15:21;;;;;;;;;;;;;;;16.54;77.85;100815.19;5023086;28;1960;-61
2022/10/08 11:17:46;;;;;;;;;;;;;;;16.55;77.68;100820.41;5021718;28;1944;-61
2022/10/08 11:20:17;;;;;;;;;;;;;;;16.58;77.69;100817.03;5024570;28;1431;-62
2022/10/08 11:23:03;;;;;;;;;;;;;;;16.61;78.29;100815.59;5031815;28;1854;-62
2022/10/08 11:25:36;;;;;;;;;;;;;;;16.59;78.30;100820.56;5028270;28;1819;-60
2022/10/08 11:28:20;;;;;;;;;;;;;;;16.58;77.85;100821.72;5025659;28;2062;-60
2022/10/08 11:30:55;;;;;;;;;;;;;;;16.56;78.08;100810.16;5029324;28;2017;-60
2022/10/08 11:33:21;;;;;;;;;;;;;;;16.58;78.07;100814.25;5024781;28;2214;-61
2022/10/08 11:36:02;;;;;;;;;;;;;;;16.62;77.80;100809.75;5025052;28;2028;-61
2022/10/08 11:38:33;;;;;;;;;;;;;;;16.65;78.79;100819.38;5026047;28;2200;-61
2022/10/08 11:41:04;;;;;;;;;;;;;;;16.66;78.42;100814.66;5031247;28;2393;-61
2022/10/08 11:43:32;;;;;;;;;;;;;;;16.64;77.77;100821.31;5025158;28;2002;-61
2022/10/08 11:46:19;;;;;;;;;;;;;;;16.63;77.57;100822.44;5027131;28;2341;-60
2022/10/08 11:48:45;;;;;;;;;;;;;;;16.62;77.89;100818.06;5024315;28;2165;-61
2022/10/08 11:51:30;;;;;;;;;;;;;;;16.63;78.25;100821.63;5025728;28;2093;-60
2022/10/08 11:54:01;;;;;;;;;;;;;;;16.62;77.57;100826.34;5028662;28;2124;-62
2022/10/08 11:56:26;;;;;;;;;;;;;;;16.64;77.57;100823.28;5032628;28;1953;-61
2022/10/08 11:58:52;;;;;;;;;;;;;;;16.62;78.55;100831.06;5030851;28;1943;-61
2022/10/08 12:01:18;;;;;;;;;;;;;;;16.62;77.63;100823.56;5026318;28;2309;-61
2022/10/08 12:03:58;;;;;;;;;;;;;;;16.62;78.32;100815.28;5031043;28;1962;-61
2022/10/08 12:06:25;;;;;;;;;;;;;;;16.62;78.41;100814.47;5027449;28;2161;-60
2022/10/08 12:08:53;;;;;;;;;;;;;;;16.61;78.32;100802.59;5025717;28;1985;-61
2022/10/08 12:11:24;;;;;;;;;;;;;;;16.60;78.47;100805.63;5032009;28;1609;-62
2022/10/08 12:14:08;;;;;;;;;;;;;;;16.62;77.75;100806.19;5030437;28;1894;-61
2022/10/08 12:16:52;;;;;;;;;;;;;;;16.63;77.61;100808.63;5026631;28;2104;-61
2022/10/08 12:19:35;;;;;;;;;;;;;;;16.65;77.60;100805.56;5026124;28;1762;-61
2022/10/08 12:22:24;;;;;;;;;;;;;;;16.64;77.69;100810.28;5013638;28;965;-61
2022/10/08 12:24:55;;;;;;;;;;;;;;;16.63;77.71;100814.16;5032106;28;2148;-61
2022/10/08 12:27:27;;;;;;;;;;;;;;;16.64;78.29;100812.22;5032363;28;1974;-61
2022/10/08 12:29:54;;;;;;;;;;;;;;;16.63;78.15;100807.81;5024569;28;1964;-61
2022/10/08 12:32:20;;;;;;;;;;;;;;;16.64;77.64;100820.50;5030858;28;1913;-62
2022/10/08 12:34:45;;;;;;;;;;;;;;;16.64;77.23;100817.75;5025141;28;1875;-61
2022/10/08 12:37:22;;;;;;;;;;;;;;;16.65;77.82;100802.78;5031169;28;2341;-62
2022/10/08 12:39:48;;;;;;;;;;;;;;;16.64;78.16;100813.03;5031650;28;2116;-61
2022/10/08 12:42:18;;;;;;;;;;;;;;;16.64;77.85;100806.69;5032668;28;1928;-62
2022/10/08 12:44:43;;;;;;;;;;;;;;;16.65;78.05;100797.28;5021895;28;1961;-62
2022/10/08 12:47:18;;;;;;;;;;;;;;;16.66;77.75;100801.66;5025020;28;1783;-62
2022/10/08 12:50:02;;;;;;;;;;;;;;;16.68;77.46;100801.34;5022592;28;2272;-62
2022/10/08 12:52:31;;;;;;;;;;;;;;;16.67;77.56;100797.78;5029834;28;1936;-61
2022/10/08 12:54:58;;;;;;;;;;;;;;;16.68;77.23;100807.69;5022309;28;1943;-61
2022/10/08 12:57:36;;;;;;;;;;;;;;;16.67;78.01;100808.00;5029835;28;2349;-62